Time;durP1;ratioP1;P1;durP2;ratioP2;P2;SDS_P1;SDS_P2;PMS_P1;PMS_P2;Temp;Humidity;BMP_temperature;BMP_pressure;BME280_temperature;BME280_humidity;BME280_pressure;Samples;Min_cycle;Max_cycle;Signal;HPM_P1;HPM_P2
2024/04/18 00:02:04;;;;;;;22.88;6.78;;;;;;;-145.63;100.00;61273.97;4985153;28;20471;-64
2024/04/18 00:04:30;;;;;;;20.25;6.93;;;;;;;-145.63;100.00;61273.97;4983450;28;20105;-64
2024/04/18 00:06:56;;;;;;;24.65;6.55;;;;;;;-145.63;100.00;61273.97;4982516;28;20101;-65
2024/04/18 00:09:21;;;;;;;27.38;7.38;;;;;;;-145.63;100.00;61273.97;4980893;28;20026;-64
2024/04/18 00:11:47;;;;;;;22.98;7.30;;;;;;;-145.63;100.00;61273.97;4983233;28;20034;-64
2024/04/18 00:14:12;;;;;;;23.67;6.88;;;;;;;-145.63;100.00;61273.97;4986243;28;20455;-66
2024/04/18 00:16:38;;;;;;;21.42;7.45;;;;;;;-145.63;100.00;61273.97;4981980;28;20030;-66
2024/04/18 00:19:03;;;;;;;32.38;8.45;;;;;;;-145.63;100.00;61273.97;4983691;28;20503;-65
2024/04/18 00:21:29;;;;;;;22.95;8.23;;;;;;;-145.63;100.00;61273.97;4984720;28;20440;-64
2024/04/18 00:23:55;;;;;;;26.85;7.57;;;;;;;-145.63;100.00;61273.97;4978938;28;20074;-65
2024/04/18 00:26:23;;;;;;;21.00;7.28;;;;;;;-145.63;100.00;61273.97;4985237;28;20745;-64
2024/04/18 00:29:25;;;;;;;15.32;6.55;;;;;;;-145.63;100.00;61273.97;4983640;28;20125;-66
2024/04/18 00:32:18;;;;;;;20.90;8.13;;;;;;;-145.63;100.00;61273.97;4984874;28;20027;-64
2024/04/18 00:34:55;;;;;;;20.83;6.88;;;;;;;-145.63;100.00;61273.97;4982268;28;20035;-64
2024/04/18 00:37:26;;;;;;;25.30;8.30;;;;;;;-145.63;100.00;61273.97;4982674;28;20026;-64
2024/04/18 00:39:52;;;;;;;24.30;8.13;;;;;;;-145.63;100.00;61273.97;4982930;28;20056;-64
2024/04/18 00:42:33;;;;;;;22.27;8.38;;;;;;;-145.63;100.00;61273.97;4979058;28;20540;-65
2024/04/18 00:45:20;;;;;;;23.92;8.15;;;;;;;-145.63;100.00;61273.97;4982044;28;20027;-65
2024/04/18 00:48:10;;;;;;;17.65;8.43;;;;;;;-145.63;100.00;61273.97;4985290;28;20058;-64
2024/04/18 00:53:48;;;;;;;25.98;8.32;;;;;;;-145.63;100.00;61273.97;4979660;28;20030;-67
2024/04/18 00:56:14;;;;;;;25.63;8.80;;;;;;;-145.63;100.00;61273.97;4985429;28;20088;-65
2024/04/18 01:01:52;;;;;;;15.93;8.82;;;;;;;-145.63;100.00;61273.97;4979470;28;20039;-64
2024/04/18 01:04:20;;;;;;;17.03;8.60;;;;;;;-145.63;100.00;61273.97;4977843;28;20967;-66
2024/04/18 01:06:50;;;;;;;19.42;8.52;;;;;;;-145.63;100.00;61273.97;4979670;28;20046;-66
2024/04/18 01:09:23;;;;;;;18.20;8.32;;;;;;;-145.63;100.00;61273.97;4978990;28;20030;-65
2024/04/18 01:11:55;;;;;;;24.42;9.25;;;;;;;-145.63;100.00;61273.97;4982571;28;20460;-65
2024/04/18 01:14:23;;;;;;;17.15;8.32;;;;;;;-145.63;100.00;61273.97;4981738;28;20027;-65
2024/04/18 01:17:13;;;;;;;19.77;8.50;;;;;;;-145.63;100.00;61273.97;4983347;28;20058;-65
2024/04/18 01:20:04;;;;;;;13.20;7.72;;;;;;;-145.63;100.00;61273.97;4982362;28;20538;-65
2024/04/18 01:22:39;;;;;;;15.40;8.82;;;;;;;-145.63;100.00;61273.97;4978887;28;20101;-64
2024/04/18 01:25:08;;;;;;;22.35;9.35;;;;;;;-145.63;100.00;61273.97;4980822;28;20042;-64
2024/04/18 01:27:36;;;;;;;17.17;8.73;;;;;;;-145.63;100.00;61273.97;4985376;28;20036;-65
2024/04/18 01:33:00;;;;;;;23.00;9.15;;;;;;;-145.63;100.00;61273.97;4974061;28;20026;-67
2024/04/18 01:35:26;;;;;;;20.48;8.88;;;;;;;-145.63;100.00;61273.97;4981526;28;20030;-65
2024/04/18 01:38:12;;;;;;;19.02;9.43;;;;;;;-145.63;100.00;61273.97;4980997;28;20023;-65
2024/04/18 01:40:37;;;;;;;18.60;8.77;;;;;;;-145.63;100.00;61273.97;4981866;28;20564;-64
2024/04/18 01:43:12;;;;;;;20.77;9.13;;;;;;;-145.63;100.00;61273.97;4979703;28;20058;-65
2024/04/18 01:45:40;;;;;;;19.30;9.55;;;;;;;-145.63;100.00;61273.97;4978857;28;20182;-65
2024/04/18 01:48:06;;;;;;;27.15;9.32;;;;;;;-145.63;100.00;61273.97;4987522;28;20030;-64
2024/04/18 01:50:32;;;;;;;24.65;9.70;;;;;;;-145.63;100.00;61273.97;4981274;28;20023;-65
2024/04/18 01:56:06;;;;;;;16.33;8.98;;;;;;;-145.63;100.00;61273.97;4971031;28;20380;-66
2024/04/18 01:58:35;;;;;;;20.30;9.90;;;;;;;-145.63;100.00;61273.97;4980282;28;20153;-66
2024/04/18 02:01:22;;;;;;;19.65;10.00;;;;;;;-145.63;100.00;61273.97;4984556;28;20518;-65
2024/04/18 02:04:11;;;;;;;26.42;9.80;;;;;;;-145.63;100.00;61273.97;4976415;28;20031;-65
2024/04/18 02:06:47;;;;;;;26.80;9.80;;;;;;;-145.63;100.00;61273.97;4976998;28;20039;-65
2024/04/18 02:09:13;;;;;;;19.25;10.23;;;;;;;-145.63;100.00;61273.97;4983756;28;20034;-65
2024/04/18 02:11:45;;;;;;;20.48;9.15;;;;;;;-145.63;100.00;61273.97;4979803;28;20045;-66
2024/04/18 02:14:15;;;;;;;25.20;14.23;;;;;;;-145.63;100.00;61273.97;4980542;28;20084;-65
2024/04/18 02:16:42;;;;;;;18.05;10.77;;;;;;;-145.63;100.00;61273.97;4986103;28;20041;-67
2024/04/18 02:19:07;;;;;;;21.38;10.80;;;;;;;-145.63;100.00;61273.97;4978975;28;20031;-65
2024/04/18 02:21:33;;;;;;;17.45;10.40;;;;;;;-145.63;100.00;61273.97;4984501;28;20030;-66
2024/04/18 02:23:58;;;;;;;16.50;10.10;;;;;;;-145.63;100.00;61273.97;4978024;28;20058;-65
2024/04/18 02:26:24;;;;;;;22.10;12.75;;;;;;;-145.63;100.00;61273.97;4980288;28;20034;-67
2024/04/18 02:28:50;;;;;;;15.73;10.48;;;;;;;-145.63;100.00;61273.97;4980810;28;20035;-66
2024/04/18 02:31:16;;;;;;;25.35;11.85;;;;;;;-145.63;100.00;61273.97;4981699;28;20038;-65
2024/04/18 02:33:41;;;;;;;15.05;10.95;;;;;;;-145.63;100.00;61273.97;4976655;28;20026;-64
2024/04/18 02:36:07;;;;;;;20.15;11.07;;;;;;;-145.63;100.00;61273.97;4980429;28;20379;-65
2024/04/18 02:38:34;;;;;;;18.38;12.50;;;;;;;-145.63;100.00;61273.97;4997761;28;20089;-65
2024/04/18 02:41:01;;;;;;;22.20;13.27;;;;;;;-145.63;100.00;61273.97;4975504;28;20541;-66
2024/04/18 02:43:27;;;;;;;22.02;12.68;;;;;;;-145.63;100.00;61273.97;4973261;28;20030;-64
2024/04/18 02:45:53;;;;;;;21.25;13.45;;;;;;;-145.63;100.00;61273.97;4979692;28;20109;-65
2024/04/18 02:48:18;;;;;;;18.95;12.57;;;;;;;-145.63;100.00;61273.97;4979629;28;20077;-64
2024/04/18 02:50:44;;;;;;;18.10;13.23;;;;;;;-145.63;100.00;61273.97;4975770;28;20509;-64
2024/04/18 02:53:09;;;;;;;16.20;12.98;;;;;;;-145.63;100.00;61273.97;4976552;28;20046;-65
2024/04/18 02:55:35;;;;;;;22.50;13.45;;;;;;;-145.63;100.00;61273.97;4972781;28;20034;-64
2024/04/18 02:58:01;;;;;;;19.58;12.90;;;;;;;-145.63;100.00;61273.97;4975032;28;20559;-64
2024/04/18 03:00:26;;;;;;;20.42;12.27;;;;;;;-145.63;100.00;61273.97;4976930;28;20114;-64
2024/04/18 03:02:52;;;;;;;20.48;13.32;;;;;;;-145.63;100.00;61273.97;4984696;28;20030;-64
2024/04/18 03:05:18;;;;;;;19.65;13.07;;;;;;;-145.63;100.00;61273.97;4978002;28;20027;-65
2024/04/18 03:08:21;;;;;;;17.15;12.02;;;;;;;-145.63;100.00;61273.97;4974052;28;20435;-66
2024/04/18 03:11:01;;;;;;;15.73;11.93;;;;;;;-145.63;100.00;61273.97;4975837;28;20027;-65
2024/04/18 03:13:39;;;;;;;16.65;11.60;;;;;;;-145.63;100.00;61273.97;4976531;28;20027;-65
2024/04/18 03:16:20;;;;;;;16.52;11.73;;;;;;;-145.63;100.00;61273.97;4984716;28;20760;-66
2024/04/18 03:18:45;;;;;;;14.63;10.60;;;;;;;-145.63;100.00;61273.97;4990931;28;20628;-66
2024/04/18 03:21:11;;;;;;;18.15;11.80;;;;;;;-145.63;100.00;61273.97;4981930;28;20034;-65
2024/04/18 03:23:45;;;;;;;16.08;11.57;;;;;;;-145.63;100.00;61273.97;4979828;28;20055;-65
2024/04/18 03:26:26;;;;;;;15.40;11.30;;;;;;;-145.63;100.00;61273.97;4977582;28;20097;-66
2024/04/18 03:29:03;;;;;;;13.82;10.95;;;;;;;-145.63;100.00;61273.97;4983459;28;20038;-67
2024/04/18 03:31:40;;;;;;;15.90;11.70;;;;;;;-145.63;100.00;61273.97;4976308;28;20034;-66
2024/04/18 03:34:06;;;;;;;14.40;11.32;;;;;;;-145.63;100.00;61273.97;4988341;28;20030;-65
2024/04/18 03:39:42;;;;;;;16.27;11.80;;;;;;;-145.63;100.00;61273.97;4979897;28;20042;-66
2024/04/18 03:42:54;;;;;;;13.38;11.02;;;;;;;-145.63;100.00;61273.97;4985477;28;20106;-66
2024/04/18 03:45:39;;;;;;;19.83;11.23;;;;;;;-145.63;100.00;61273.97;4984747;28;20054;-66
2024/04/18 03:48:10;;;;;;;19.38;12.65;;;;;;;-145.63;100.00;61273.97;4979729;28;20773;-66
2024/04/18 03:50:39;;;;;;;16.88;11.73;;;;;;;-145.63;100.00;61273.97;4986984;28;20558;-65
2024/04/18 03:53:13;;;;;;;17.92;12.73;;;;;;;-145.63;100.00;61273.97;4984293;28;20026;-66
2024/04/18 03:56:00;;;;;;;16.48;12.30;;;;;;;-145.63;100.00;61273.97;4977162;28;20396;-67
2024/04/18 03:58:54;;;;;;;16.35;12.23;;;;;;;-145.63;100.00;61273.97;4977656;28;20065;-67
2024/04/18 04:01:38;;;;;;;14.00;11.80;;;;;;;-145.63;100.00;61273.97;4976414;28;20035;-66
2024/04/18 04:04:25;;;;;;;13.35;11.05;;;;;;;-145.63;100.00;61273.97;4981060;28;20129;-66
2024/04/18 04:06:51;;;;;;;17.30;11.35;;;;;;;-145.63;100.00;61273.97;4982065;28;20504;-65
2024/04/18 04:09:25;;;;;;;14.80;11.52;;;;;;;-145.63;100.00;61273.97;4984182;28;20031;-67
2024/04/18 04:12:04;;;;;;;19.35;11.82;;;;;;;-145.63;100.00;61273.97;4978751;28;20041;-66
2024/04/18 04:14:35;;;;;;;13.98;11.80;;;;;;;-145.63;100.00;61273.97;4979567;28;20132;-65
2024/04/18 04:17:04;;;;;;;18.42;11.68;;;;;;;-145.63;100.00;61273.97;4981107;28;20072;-64
2024/04/18 04:19:41;;;;;;;14.60;11.57;;;;;;;-145.63;100.00;61273.97;4983145;28;20044;-66
2024/04/18 04:22:19;;;;;;;16.65;11.48;;;;;;;-145.63;100.00;61273.97;4982680;28;20035;-66
2024/04/18 04:24:51;;;;;;;12.98;11.43;;;;;;;-145.63;100.00;61273.97;4982754;28;20400;-67
2024/04/18 04:27:19;;;;;;;16.63;11.88;;;;;;;-145.63;100.00;61273.97;4978950;28;20046;-66
2024/04/18 04:30:25;;;;;;;14.20;10.63;;;;;;;-145.63;100.00;61273.97;4978949;28;20455;-65
2024/04/18 04:33:15;;;;;;;15.80;11.13;;;;;;;-145.63;100.00;61273.97;4977593;28;20047;-65
2024/04/18 04:35:43;;;;;;;18.23;11.38;;;;;;;-145.63;100.00;61273.97;4985753;28;20045;-66
2024/04/18 04:38:14;;;;;;;20.17;10.63;;;;;;;-145.63;100.00;61273.97;4978580;28;20019;-64
2024/04/18 04:40:43;;;;;;;16.02;11.10;;;;;;;-145.63;100.00;61273.97;4981515;28;20049;-68
2024/04/18 04:43:24;;;;;;;12.98;11.25;;;;;;;-145.63;100.00;61273.97;4980537;28;20180;-67
2024/04/18 04:46:04;;;;;;;17.30;11.00;;;;;;;-145.63;100.00;61273.97;4980550;28;20341;-66
2024/04/18 04:48:49;;;;;;;13.27;11.00;;;;;;;-145.63;100.00;61273.97;4985813;28;20125;-66
2024/04/18 04:51:33;;;;;;;16.70;10.45;;;;;;;-145.63;100.00;61273.97;4981507;28;20034;-65
2024/04/18 04:54:17;;;;;;;19.02;10.63;;;;;;;-145.63;100.00;61273.97;4981441;28;20038;-66
2024/04/18 04:57:13;;;;;;;15.20;10.70;;;;;;;-145.63;100.00;61273.97;4977572;28;20464;-71
2024/04/18 04:59:52;;;;;;;12.68;10.07;;;;;;;-145.63;100.00;61273.97;4980359;28;20030;-65
2024/04/18 05:02:57;;;;;;;15.45;10.55;;;;;;;-145.63;100.00;61273.97;4978875;28;20039;-64
2024/04/18 05:05:58;;;;;;;15.00;10.90;;;;;;;-145.63;100.00;61273.97;4979320;28;20057;-64
2024/04/18 05:08:36;;;;;;;13.80;9.90;;;;;;;-145.63;100.00;61273.97;4978237;28;20034;-65
2024/04/18 05:11:04;;;;;;;17.27;10.60;;;;;;;-145.63;100.00;61273.97;4987621;28;20038;-64
2024/04/18 05:13:38;;;;;;;15.13;9.55;;;;;;;-145.63;100.00;61273.97;4979171;28;20061;-65
2024/04/18 05:16:28;;;;;;;17.00;9.90;;;;;;;-145.63;100.00;61273.97;4979842;28;20027;-64
2024/04/18 05:19:02;;;;;;;15.32;10.20;;;;;;;-145.63;100.00;61273.97;4977618;28;20072;-65
2024/04/18 05:21:33;;;;;;;11.82;9.10;;;;;;;-145.63;100.00;61273.97;4985178;28;20078;-63
2024/04/18 05:24:18;;;;;;;15.35;9.88;;;;;;;-145.63;100.00;61273.97;4984615;28;20042;-64
2024/04/18 05:27:07;;;;;;;14.25;9.90;;;;;;;-145.63;100.00;61273.97;4982255;28;20035;-65
2024/04/18 05:36:06;;;;;;;17.92;10.38;;;;;;;-145.63;100.00;61273.97;4979745;28;20022;-66
2024/04/18 05:38:58;;;;;;;18.02;9.80;;;;;;;-145.63;100.00;61273.97;4980244;28;20023;-65
2024/04/18 05:41:46;;;;;;;12.15;10.02;;;;;;;-145.63;100.00;61273.97;4986602;28;20026;-64
2024/04/18 05:44:39;;;;;;;10.88;9.05;;;;;;;-145.63;100.00;61273.97;4979773;28;20085;-65
2024/04/18 05:50:33;;;;;;;12.15;9.10;;;;;;;-145.63;100.00;61273.97;4988217;28;20455;-66
2024/04/18 05:53:11;;;;;;;12.70;8.68;;;;;;;-145.63;100.00;61273.97;4986658;28;20022;-65
2024/04/18 05:55:55;;;;;;;16.95;8.95;;;;;;;-145.63;100.00;61273.97;4982241;28;20498;-70
2024/04/18 05:58:37;;;;;;;16.33;9.27;;;;;;;-145.63;100.00;61273.97;4978869;28;20153;-65
2024/04/18 06:01:15;;;;;;;16.50;9.40;;;;;;;-145.63;100.00;61273.97;4984254;28;20116;-64
2024/04/18 06:03:52;;;;;;;12.35;8.48;;;;;;;-145.63;100.00;61273.97;4988044;28;20488;-65
2024/04/18 06:12:48;;;;;;;13.65;8.50;;;;;;;-145.63;100.00;61273.97;4991197;28;20042;-66
2024/04/18 06:15:25;;;;;;;11.30;8.57;;;;;;;-145.63;100.00;61273.97;4972916;28;20039;-64
2024/04/18 06:17:54;;;;;;;13.98;8.43;;;;;;;-145.63;100.00;61273.97;4991689;28;20542;-64
2024/04/18 06:24:02;;;;;;;12.80;8.50;;;;;;;-145.63;100.00;61273.97;4992028;28;20041;-64
2024/04/18 06:26:46;;;;;;;14.55;8.35;;;;;;;-145.63;100.00;61273.97;4973842;28;20070;-65
2024/04/18 06:29:20;;;;;;;11.50;9.25;;;;;;;-145.63;100.00;61273.97;4990272;28;20730;-64
2024/04/18 06:31:55;;;;;;;11.68;9.30;;;;;;;-145.63;100.00;61273.97;4992215;28;20498;-65
2024/04/18 06:35:16;;;;;;;11.30;9.15;;;;;;;-145.63;100.00;61273.97;4980289;28;20368;-64
2024/04/18 06:37:45;;;;;;;11.52;8.77;;;;;;;-145.63;100.00;61273.97;4990936;28;20089;-64
2024/04/18 06:40:48;;;;;;;10.02;9.02;;;;;;;-145.63;100.00;61273.97;4998054;28;20030;-64
2024/04/18 06:43:47;;;;;;;9.73;8.70;;;;;;;-145.63;100.00;61273.97;4978469;28;20039;-64
2024/04/18 06:46:31;;;;;;;13.18;8.30;;;;;;;-145.63;100.00;61273.97;4994330;28;20078;-65
2024/04/18 06:49:08;;;;;;;11.82;9.00;;;;;;;-145.63;100.00;61273.97;4980633;28;20476;-63
2024/04/18 06:51:58;;;;;;;18.20;9.30;;;;;;;-145.63;100.00;61273.97;4994894;28;20034;-64
2024/04/18 06:54:30;;;;;;;13.43;8.27;;;;;;;-145.63;100.00;61273.97;4976584;28;20134;-65
2024/04/18 06:56:56;;;;;;;11.02;8.35;;;;;;;-145.63;100.00;61273.97;4995444;28;20718;-65
2024/04/18 06:59:24;;;;;;;9.80;7.85;;;;;;;-145.63;100.00;61273.97;4980149;28;20047;-65
2024/04/18 07:01:49;;;;;;;11.88;8.30;;;;;;;-145.63;100.00;61273.97;4992920;28;20060;-64
2024/04/18 07:04:25;;;;;;;13.48;8.73;;;;;;;-145.63;100.00;61273.97;4996056;28;20452;-63
2024/04/18 07:06:50;;;;;;;12.90;8.32;;;;;;;-145.63;100.00;61273.97;4992497;28;20105;-65
2024/04/18 07:09:25;;;;;;;9.48;6.80;;;;;;;-145.63;100.00;61273.97;4976179;28;20138;-65
2024/04/18 07:12:40;;;;;;;9.45;7.68;;;;;;;-145.63;100.00;61273.97;4975939;28;20408;-65
2024/04/18 07:15:11;;;;;;;9.68;7.30;;;;;;;-145.63;100.00;61273.97;4975871;28;20069;-65
2024/04/18 07:18:11;;;;;;;8.73;5.88;;;;;;;-145.63;100.00;61273.97;4993216;28;20038;-65
2024/04/18 07:20:58;;;;;;;11.18;5.50;;;;;;;-145.63;100.00;61273.97;4980307;28;20125;-65
2024/04/18 07:23:26;;;;;;;10.88;6.20;;;;;;;-145.63;100.00;61273.97;4995852;28;20034;-64
2024/04/18 07:26:01;;;;;;;8.73;6.18;;;;;;;-145.63;100.00;61273.97;4984800;28;20109;-64
2024/04/18 07:28:35;;;;;;;10.85;7.15;;;;;;;-145.63;100.00;61273.97;4982881;28;20133;-64
2024/04/18 07:31:01;;;;;;;12.30;5.85;;;;;;;-145.63;100.00;61273.97;4991785;28;20053;-64
2024/04/18 07:33:37;;;;;;;7.88;5.90;;;;;;;-145.63;100.00;61273.97;4976036;28;20027;-65
2024/04/18 07:36:30;;;;;;;11.52;5.72;;;;;;;-145.63;100.00;61273.97;4993922;28;20045;-65
2024/04/18 07:38:59;;;;;;;7.50;5.22;;;;;;;-145.63;100.00;61273.97;4976161;28;20117;-66
2024/04/18 07:41:34;;;;;;;7.07;4.80;;;;;;;-145.63;100.00;61273.97;5005769;28;20041;-64
2024/04/18 07:44:20;;;;;;;8.60;5.53;;;;;;;-145.63;100.00;61273.97;5002486;28;20034;-65
2024/04/18 07:47:01;;;;;;;8.75;5.85;;;;;;;-145.63;100.00;61273.97;4989392;28;20041;-66
2024/04/18 07:49:38;;;;;;;12.23;6.07;;;;;;;-145.63;100.00;61273.97;4988153;28;20039;-66
2024/04/18 07:52:10;;;;;;;8.02;5.93;;;;;;;-145.63;100.00;61273.97;4984560;28;20133;-65
2024/04/18 07:54:36;;;;;;;7.55;5.10;;;;;;;-145.63;100.00;61273.97;4975236;28;20042;-66
2024/04/18 07:57:20;;;;;;;9.23;4.95;;;;;;;-145.63;100.00;61273.97;4994064;28;20114;-66
2024/04/18 08:02:57;;;;;;;5.32;4.60;;;;;;;-145.63;100.00;61273.97;4992967;28;20189;-65
2024/04/18 08:05:32;;;;;;;5.30;4.80;;;;;;;-145.63;100.00;61273.97;4978861;28;20031;-65
2024/04/18 08:08:15;;;;;;;8.70;5.10;;;;;;;-145.63;100.00;61273.97;4985988;28;20076;-66
2024/04/18 08:10:53;;;;;;;12.55;5.18;;;;;;;-145.63;100.00;61273.97;4986104;28;20030;-66
2024/04/18 08:13:48;;;;;;;6.90;4.50;;;;;;;-145.63;100.00;61273.97;4982360;28;20117;-65
2024/04/18 08:16:35;;;;;;;6.45;4.15;;;;;;;-145.63;100.00;61273.97;4994361;28;20093;-67
2024/04/18 08:19:40;;;;;;;8.48;4.50;;;;;;;-145.63;100.00;61273.97;4994760;28;20030;-64
2024/04/18 08:22:18;;;;;;;4.65;4.20;;;;;;;-145.63;100.00;61273.97;4994329;28;20030;-65
2024/04/18 08:25:11;;;;;;;9.80;5.07;;;;;;;-145.63;100.00;61273.97;4993196;28;20030;-66
2024/04/18 08:28:14;;;;;;;5.72;4.32;;;;;;;-145.63;100.00;61273.97;4976076;28;20038;-65
2024/04/18 08:31:17;;;;;;;6.18;4.70;;;;;;;-145.63;100.00;61273.97;4993644;28;20053;-65
2024/04/18 08:33:48;;;;;;;6.63;3.90;;;;;;;-145.63;100.00;61273.97;4975673;28;20415;-65
2024/04/18 08:36:22;;;;;;;6.20;4.30;;;;;;;-145.63;100.00;61273.97;4993707;28;20026;-64
2024/04/18 08:39:00;;;;;;;7.13;3.95;;;;;;;-145.63;100.00;61273.97;4976592;28;20109;-66
2024/04/18 08:41:30;;;;;;;6.80;4.25;;;;;;;-145.63;100.00;61273.97;4995837;28;20056;-65
2024/04/18 08:44:04;;;;;;;6.70;3.92;;;;;;;-145.63;100.00;61273.97;4983210;28;20249;-66
2024/04/18 08:46:34;;;;;;;7.18;3.95;;;;;;;-145.63;100.00;61273.97;4975880;28;20035;-65
2024/04/18 08:49:25;;;;;;;7.82;4.57;;;;;;;-145.63;100.00;61273.97;4994060;28;20037;-65
2024/04/18 08:52:05;;;;;;;9.63;4.05;;;;;;;-145.63;100.00;61273.97;4992110;28;20034;-65
2024/04/18 08:54:33;;;;;;;11.65;4.50;;;;;;;-145.63;100.00;61273.97;4976126;28;20042;-65
2024/04/18 08:57:04;;;;;;;10.75;4.50;;;;;;;-145.63;100.00;61273.97;4992562;28;20031;-65
2024/04/18 09:00:01;;;;;;;5.68;4.22;;;;;;;-145.63;100.00;61273.97;4994161;28;20451;-66
2024/04/18 09:02:32;;;;;;;10.20;3.72;;;;;;;-145.63;100.00;61273.97;4979197;28;20401;-65
2024/04/18 09:05:37;;;;;;;5.78;4.38;;;;;;;-145.63;100.00;61273.97;4984433;28;20463;-65
2024/04/18 09:08:09;;;;;;;6.82;4.43;;;;;;;-145.63;100.00;61273.97;4981125;28;20039;-65
2024/04/18 09:13:49;;;;;;;9.35;4.45;;;;;;;-145.63;100.00;61273.97;4984220;28;20113;-66
2024/04/18 09:16:26;;;;;;;6.45;4.13;;;;;;;-145.63;100.00;61273.97;4978810;28;20030;-65
2024/04/18 09:19:11;;;;;;;7.57;4.38;;;;;;;-145.63;100.00;61273.97;4991092;28;20083;-64
2024/04/18 09:22:17;;;;;;;8.57;4.22;;;;;;;-145.63;100.00;61273.97;4974022;28;20031;-64
2024/04/18 09:24:57;;;;;;;5.90;4.28;;;;;;;-145.63;100.00;61273.97;4974614;28;20062;-64
2024/04/18 09:28:09;;;;;;;9.10;4.28;;;;;;;-145.63;100.00;61273.97;4992764;28;20063;-66
2024/04/18 09:30:54;;;;;;;7.25;3.95;;;;;;;-145.63;100.00;61273.97;4973763;28;20035;-64
2024/04/18 09:33:41;;;;;;;5.28;3.53;;;;;;;-145.63;100.00;61273.97;4973767;28;20181;-64
2024/04/18 09:36:14;;;;;;;4.90;3.42;;;;;;;-145.63;100.00;61273.97;4993393;28;20042;-66
2024/04/18 09:38:49;;;;;;;6.18;3.92;;;;;;;-145.63;100.00;61273.97;4975846;28;20088;-65
2024/04/18 09:41:46;;;;;;;6.10;4.00;;;;;;;-145.63;100.00;61273.97;4998237;28;20034;-64
2024/04/18 09:44:27;;;;;;;6.15;4.03;;;;;;;-145.63;100.00;61273.97;5000298;28;20069;-64
2024/04/18 09:47:15;;;;;;;5.82;3.97;;;;;;;-145.63;100.00;61273.97;4988066;28;20050;-64
2024/04/18 09:49:45;;;;;;;6.78;4.22;;;;;;;-145.63;100.00;61273.97;4992654;28;20468;-66
2024/04/18 09:52:18;;;;;;;6.63;4.15;;;;;;;-145.63;100.00;61273.97;4989010;28;20062;-65
2024/04/18 09:54:47;;;;;;;8.90;4.95;;;;;;;-145.63;100.00;61273.97;4973580;28;20050;-65
2024/04/18 09:57:27;;;;;;;6.68;4.75;;;;;;;-145.63;100.00;61273.97;4991002;28;20026;-65
2024/04/18 10:00:17;;;;;;;7.22;6.00;;;;;;;-145.63;100.00;61273.97;4973509;28;20126;-63
2024/04/18 10:02:57;;;;;;;9.52;6.32;;;;;;;-145.63;100.00;61273.97;4990663;28;20197;-64
2024/04/18 10:05:49;;;;;;;8.32;5.75;;;;;;;-145.63;100.00;61273.97;4991914;28;20172;-65
2024/04/18 10:08:20;;;;;;;9.48;6.57;;;;;;;-145.63;100.00;61273.97;4980474;28;20027;-65
2024/04/18 10:10:55;;;;;;;8.70;6.40;;;;;;;-145.63;100.00;61273.97;4972753;28;20038;-64
2024/04/18 10:13:51;;;;;;;8.43;5.55;;;;;;;-145.63;100.00;61273.97;4979299;28;20133;-64
2024/04/18 10:16:48;;;;;;;10.90;6.15;;;;;;;-145.63;100.00;61273.97;4987334;28;20027;-65
2024/04/18 10:19:21;;;;;;;8.75;6.05;;;;;;;-145.63;100.00;61273.97;4976839;28;20550;-64
2024/04/18 10:22:11;;;;;;;10.45;6.43;;;;;;;-145.63;100.00;61273.97;4991709;28;20026;-64
2024/04/18 10:25:15;;;;;;;9.18;5.72;;;;;;;-145.63;100.00;61273.97;4971778;28;20031;-65
2024/04/18 10:27:44;;;;;;;6.82;5.25;;;;;;;-145.63;100.00;61273.97;4972243;28;20041;-65
2024/04/18 10:30:18;;;;;;;5.95;5.22;;;;;;;-145.63;100.00;61273.97;4992108;28;20027;-66
2024/04/18 10:32:58;;;;;;;7.68;5.45;;;;;;;-145.63;100.00;61273.97;4975952;28;20031;-65
2024/04/18 10:35:33;;;;;;;7.47;4.75;;;;;;;-145.63;100.00;61273.97;4985956;28;20519;-64
2024/04/18 10:38:05;;;;;;;6.40;4.45;;;;;;;-145.63;100.00;61273.97;4992178;28;20403;-65
2024/04/18 10:40:36;;;;;;;4.95;3.70;;;;;;;-145.63;100.00;61273.97;4997529;28;20061;-65
2024/04/18 10:43:34;;;;;;;2.95;2.50;;;;;;;-145.63;100.00;61273.97;5008128;28;20065;-65
2024/04/18 10:46:10;;;;;;;4.50;2.50;;;;;;;-145.63;100.00;61273.97;4990609;28;20141;-65
2024/04/18 10:48:42;;;;;;;4.45;2.70;;;;;;;-145.63;100.00;61273.97;4990441;28;20514;-65
2024/04/18 10:51:18;;;;;;;5.13;3.40;;;;;;;-145.63;100.00;61273.97;4972645;28;20054;-65
2024/04/18 10:53:50;;;;;;;3.03;2.10;;;;;;;-145.63;100.00;61273.97;4988617;28;20084;-64
2024/04/18 10:56:21;;;;;;;3.22;2.70;;;;;;;-145.63;100.00;61273.97;4978637;28;20489;-65
2024/04/18 10:58:47;;;;;;;4.18;3.10;;;;;;;-145.63;100.00;61273.97;4981002;28;20081;-65
2024/04/18 11:01:18;;;;;;;8.70;3.00;;;;;;;-145.63;100.00;61273.97;4988659;28;20039;-66
2024/04/18 11:03:50;;;;;;;4.80;2.88;;;;;;;-145.63;100.00;61273.97;4971970;28;20495;-65
2024/04/18 11:06:16;;;;;;;3.28;2.83;;;;;;;-145.63;100.00;61273.97;4972606;28;20035;-65
2024/04/18 11:09:38;;;;;;;4.40;3.00;;;;;;;-145.63;100.00;61273.97;4989658;28;20037;-64
2024/04/18 11:12:19;;;;;;;5.05;3.03;;;;;;;-145.63;100.00;61273.97;4972200;28;20141;-64
2024/04/18 11:14:58;;;;;;;4.15;3.15;;;;;;;-145.63;100.00;61273.97;4988385;28;20042;-64
2024/04/18 11:20:34;;;;;;;5.28;2.72;;;;;;;-145.63;100.00;61273.97;4986197;28;20042;-65
2024/04/18 11:23:29;;;;;;;4.65;3.13;;;;;;;-145.63;100.00;61273.97;4981911;28;20104;-64
2024/04/18 11:26:13;;;;;;;4.18;3.35;;;;;;;-145.63;100.00;61273.97;4980655;28;20383;-64
2024/04/18 11:28:42;;;;;;;4.45;3.08;;;;;;;-145.63;100.00;61273.97;4984698;28;20027;-64
2024/04/18 11:31:10;;;;;;;4.72;3.53;;;;;;;-145.63;100.00;61273.97;4976403;28;20461;-63
2024/04/18 11:34:05;;;;;;;4.43;3.42;;;;;;;-145.63;100.00;61273.97;4994868;28;20045;-63
2024/04/18 11:36:58;;;;;;;4.88;3.00;;;;;;;-145.63;100.00;61273.97;4995444;28;20372;-64
2024/04/18 11:43:17;;;;;;;5.57;2.97;;;;;;;-145.63;100.00;61273.97;4988509;28;20073;-65
2024/04/18 11:46:19;;;;;;;5.00;2.85;;;;;;;-145.63;100.00;61273.97;4990268;28;20057;-64
2024/04/18 11:48:51;;;;;;;7.50;3.15;;;;;;;-145.63;100.00;61273.97;4975260;28;20043;-64
2024/04/18 11:51:44;;;;;;;9.15;3.38;;;;;;;-145.63;100.00;61273.97;4984982;28;20080;-65
2024/04/18 11:57:53;;;;;;;5.72;3.25;;;;;;;-145.63;100.00;61273.97;4978941;28;20050;-63
2024/04/18 12:00:22;;;;;;;3.83;3.20;;;;;;;-145.63;100.00;61273.97;4986554;28;20038;-65
2024/04/18 12:02:57;;;;;;;3.88;3.17;;;;;;;-145.63;100.00;61273.97;4978637;28;20042;-64
2024/04/18 12:05:30;;;;;;;5.70;3.38;;;;;;;-145.63;100.00;61273.97;4975378;28;20467;-65
2024/04/18 12:08:15;;;;;;;4.15;3.33;;;;;;;-145.63;100.00;61273.97;4986600;28;20092;-65
2024/04/18 12:10:40;;;;;;;4.88;3.78;;;;;;;-145.63;100.00;61273.97;4987996;28;20027;-64
2024/04/18 12:13:12;;;;;;;5.72;4.10;;;;;;;-145.63;100.00;61273.97;4977219;28;20149;-64
2024/04/18 12:15:59;;;;;;;6.63;4.28;;;;;;;-145.63;100.00;61273.97;4981489;28;20096;-64
2024/04/18 12:18:36;;;;;;;6.00;4.68;;;;;;;-145.63;100.00;61273.97;4974681;28;20062;-65
2024/04/18 12:23:58;;;;;;;5.40;4.15;;;;;;;-145.63;100.00;61273.97;4979223;28;20074;-64
2024/04/18 12:26:36;;;;;;;5.43;4.90;;;;;;;-145.63;100.00;61273.97;4987606;28;20089;-65
2024/04/18 12:29:35;;;;;;;7.47;4.85;;;;;;;-145.63;100.00;61273.97;4982769;28;20486;-66
2024/04/18 12:32:04;;;;;;;6.78;4.63;;;;;;;-145.63;100.00;61273.97;4976104;28;20045;-64
2024/04/18 12:34:35;;;;;;;8.07;4.63;;;;;;;-145.63;100.00;61273.97;4980606;28;20088;-65
2024/04/18 12:37:10;;;;;;;4.95;4.15;;;;;;;-145.63;100.00;61273.97;4981592;28;20031;-64
2024/04/18 12:39:54;;;;;;;5.57;4.30;;;;;;;-145.63;100.00;61273.97;4997405;28;20027;-65
2024/04/18 12:45:25;;;;;;;4.35;3.75;;;;;;;-145.63;100.00;61273.97;4975753;28;20558;-65
2024/04/18 12:47:59;;;;;;;4.72;4.07;;;;;;;-145.63;100.00;61273.97;4988600;28;20026;-66